createdAt,value
2018-01-14T00:00:58.214Z,76.99
2018-01-14T00:03:25.834Z,76.71
2018-01-14T00:05:53.394Z,77.98
2018-01-14T00:08:21.006Z,77.91
2018-01-14T00:10:48.578Z,78.22
2018-01-14T00:13:16.277Z,78.25
2018-01-14T00:15:43.951Z,78.30
2018-01-14T00:18:11.598Z,78.37
2018-01-14T00:20:39.166Z,79.04
2018-01-14T00:23:06.772Z,79.43
2018-01-14T00:25:34.354Z,79.30
2018-01-14T00:28:01.976Z,79.80
2018-01-14T00:30:29.955Z,79.30
2018-01-14T00:32:57.573Z,79.33
2018-01-14T00:35:25.287Z,79.55
2018-01-14T00:37:52.899Z,79.36
2018-01-14T00:40:20.476Z,79.60
2018-01-14T00:42:48.085Z,79.52
2018-01-14T00:45:15.766Z,79.79
2018-01-14T00:47:43.346Z,79.51
2018-01-14T00:50:11.010Z,80.23
2018-01-14T00:52:38.629Z,80.05
2018-01-14T00:55:06.214Z,80.49
2018-01-14T00:57:33.793Z,80.42
2018-01-14T01:00:01.408Z,79.94
2018-01-14T01:02:29.020Z,79.90
2018-01-14T01:04:56.592Z,80.05
2018-01-14T01:07:24.233Z,79.91
2018-01-14T01:09:51.817Z,79.49
2018-01-14T01:12:19.554Z,79.81
2018-01-14T01:14:47.210Z,80.25
2018-01-14T01:17:14.789Z,79.74
2018-01-14T01:19:42.547Z,80.25
2018-01-14T01:22:10.144Z,79.56
2018-01-14T01:24:37.867Z,78.01
2018-01-14T01:27:05.430Z,78.05
2018-01-14T01:29:33.044Z,78.04
2018-01-14T01:32:00.614Z,78.71
2018-01-14T01:34:28.181Z,78.90
2018-01-14T01:36:55.848Z,79.15
2018-01-14T01:39:23.399Z,78.56
2018-01-14T01:41:50.962Z,78.47
2018-01-14T01:44:18.572Z,78.70
2018-01-14T01:46:46.141Z,78.06
2018-01-14T01:49:13.693Z,78.10
2018-01-14T01:51:41.322Z,77.02
2018-01-14T01:54:08.889Z,77.65
2018-01-14T01:56:36.670Z,77.95
2018-01-14T01:59:04.289Z,77.88
2018-01-14T02:01:31.859Z,78.20
2018-01-14T02:03:59.430Z,78.17
2018-01-14T02:06:27.087Z,77.32
2018-01-14T02:08:54.652Z,77.92
2018-01-14T02:11:22.214Z,78.28
2018-01-14T02:13:49.836Z,77.65
2018-01-14T02:16:17.540Z,77.02
2018-01-14T02:18:45.102Z,76.96
2018-01-14T02:21:12.728Z,77.23
2018-01-14T02:23:40.303Z,77.00
2018-01-14T02:26:07.982Z,76.58
2018-01-14T02:28:35.648Z,76.35
2018-01-14T02:31:03.324Z,76.14
2018-01-14T02:33:30.987Z,76.94
2018-01-14T02:35:58.597Z,76.81
2018-01-14T02:38:26.167Z,76.39
2018-01-14T02:40:53.727Z,76.45
2018-01-14T02:43:21.331Z,76.47
2018-01-14T02:45:48.913Z,75.98
2018-01-14T02:48:16.491Z,76.82
2018-01-14T02:50:44.097Z,76.87
2018-01-14T02:53:11.647Z,76.81
2018-01-14T02:55:39.230Z,76.25
2018-01-14T02:58:06.843Z,76.15
2018-01-14T03:00:34.415Z,76.19
2018-01-14T03:03:01.993Z,75.98
2018-01-14T03:05:29.590Z,76.67
2018-01-14T03:07:57.151Z,77.14
2018-01-14T03:10:24.712Z,77.74
2018-01-14T03:12:52.316Z,77.68
2018-01-14T03:15:20.012Z,77.06
2018-01-14T03:17:47.656Z,77.17
2018-01-14T03:20:15.278Z,77.49
2018-01-14T03:22:42.860Z,77.51
2018-01-14T03:25:10.489Z,77.43
2018-01-14T03:27:38.306Z,77.78
2018-01-14T03:30:05.986Z,77.55
2018-01-14T03:32:33.577Z,77.48
2018-01-14T03:35:01.407Z,77.50
2018-01-14T03:37:28.987Z,77.59
2018-01-14T03:39:56.559Z,78.14
2018-01-14T03:42:24.297Z,77.58
2018-01-14T03:44:51.879Z,77.01
2018-01-14T03:47:19.449Z,76.41
2018-01-14T03:49:47.064Z,76.37
2018-01-14T03:52:14.739Z,76.26
2018-01-14T03:54:42.419Z,76.82
2018-01-14T03:57:10.023Z,76.86
2018-01-14T03:59:37.610Z,76.24
2018-01-14T04:02:05.380Z,76.53
2018-01-14T04:04:33.004Z,76.42
2018-01-14T04:07:00.592Z,77.14
2018-01-14T04:09:28.164Z,77.28
2018-01-14T04:11:55.825Z,77.53
2018-01-14T04:14:23.499Z,77.52
2018-01-14T04:16:51.075Z,77.54
2018-01-14T04:19:20.655Z,76.95
2018-01-14T04:21:48.227Z,77.23
2018-01-14T04:24:15.798Z,77.46
2018-01-14T04:26:43.411Z,77.37
2018-01-14T04:29:11.102Z,77.28
2018-01-14T04:31:38.684Z,77.22
2018-01-14T04:34:06.419Z,77.26
2018-01-14T04:36:34.011Z,77.51
2018-01-14T04:39:01.596Z,77.43
2018-01-14T04:41:29.213Z,76.90
2018-01-14T04:43:56.875Z,76.98
2018-01-14T04:46:24.429Z,77.10
2018-01-14T04:48:52.048Z,78.22
2018-01-14T04:51:19.662Z,78.37
2018-01-14T04:53:47.234Z,77.61
2018-01-14T04:56:14.842Z,76.96
2018-01-14T04:58:42.419Z,77.03
2018-01-14T05:01:10.100Z,77.30
2018-01-14T05:03:37.724Z,76.87
2018-01-14T05:06:05.306Z,77.07
2018-01-14T05:08:32.865Z,75.60
2018-01-14T05:11:00.525Z,75.13
2018-01-14T05:13:28.111Z,75.14
2018-01-14T05:15:55.701Z,75.29
2018-01-14T05:18:23.330Z,76.14
2018-01-14T05:20:50.897Z,74.94
2018-01-14T05:23:18.646Z,74.73
2018-01-14T05:25:46.265Z,75.40
2018-01-14T05:28:13.864Z,76.24
2018-01-14T05:30:41.440Z,75.41
2018-01-14T05:33:09.059Z,75.56
2018-01-14T05:35:36.633Z,75.46
2018-01-14T05:38:04.218Z,75.60
2018-01-14T05:40:31.871Z,76.06
2018-01-14T05:42:59.441Z,75.82
2018-01-14T05:45:27.023Z,75.79
2018-01-14T05:47:54.635Z,75.47
2018-01-14T05:50:22.207Z,75.37
2018-01-14T05:52:49.802Z,75.29
2018-01-14T05:55:17.433Z,75.35
2018-01-14T05:57:45.107Z,76.25
2018-01-14T06:00:12.772Z,75.68
2018-01-14T06:02:40.433Z,75.75
2018-01-14T06:05:08.002Z,75.97
2018-01-14T06:07:35.744Z,75.67
2018-01-14T06:10:03.422Z,75.17
2018-01-14T06:12:31.061Z,74.69
2018-01-14T06:14:58.729Z,74.75
2018-01-14T06:17:26.322Z,74.60
2018-01-14T06:19:53.889Z,75.13
2018-01-14T06:22:21.464Z,75.28
2018-01-14T06:24:49.066Z,75.03
2018-01-14T06:27:16.839Z,75.79
2018-01-14T06:29:44.403Z,75.92
2018-01-14T06:32:12.156Z,76.30
2018-01-14T06:34:39.746Z,75.94
2018-01-14T06:37:07.303Z,75.63
2018-01-14T06:39:34.920Z,75.83
2018-01-14T06:42:02.631Z,76.89
2018-01-14T06:44:30.253Z,77.96
2018-01-14T06:46:57.943Z,76.36
2018-01-14T06:49:25.553Z,75.56
2018-01-14T06:51:53.124Z,75.55
2018-01-14T06:54:20.742Z,75.33
2018-01-14T06:56:48.306Z,75.01
2018-01-14T06:59:15.861Z,74.55
2018-01-14T07:01:43.605Z,74.92
2018-01-14T07:04:11.169Z,74.01
2018-01-14T07:06:38.759Z,74.22
2018-01-14T07:09:06.381Z,74.22
2018-01-14T07:11:33.925Z,74.22
2018-01-14T07:14:01.486Z,74.94
2018-01-14T07:16:29.082Z,74.06
2018-01-14T07:18:56.654Z,76.28
2018-01-14T07:21:24.230Z,74.59
2018-01-14T07:23:51.818Z,75.54
2018-01-14T07:26:19.495Z,75.24
2018-01-14T07:28:47.164Z,74.79
2018-01-14T07:31:14.768Z,74.79
2018-01-14T07:33:42.504Z,74.87
2018-01-14T07:36:10.061Z,75.01
2018-01-14T07:38:37.658Z,74.73
2018-01-14T07:41:05.284Z,74.67
2018-01-14T07:43:32.928Z,75.15
2018-01-14T07:46:00.600Z,75.11
2018-01-14T07:48:28.162Z,74.81
2018-01-14T07:50:55.752Z,75.39
2018-01-14T07:53:23.390Z,75.73
2018-01-14T07:55:50.965Z,75.03
2018-01-14T07:58:18.545Z,74.58
2018-01-14T08:00:46.160Z,74.37
2018-01-14T08:03:13.818Z,74.08
2018-01-14T08:05:41.499Z,73.27
2018-01-14T08:08:09.165Z,73.12
2018-01-14T08:10:36.796Z,72.79
2018-01-14T08:13:04.359Z,71.46
2018-01-14T08:15:31.952Z,70.92
2018-01-14T08:17:59.518Z,71.06
2018-01-14T08:20:27.088Z,70.55
2018-01-14T08:22:54.683Z,70.17
2018-01-14T08:25:22.381Z,70.50
2018-01-14T08:27:50.050Z,69.79
2018-01-14T08:30:17.642Z,68.19
2018-01-14T08:32:45.202Z,67.79
2018-01-14T08:35:12.772Z,66.82
2018-01-14T08:37:40.418Z,66.05
2018-01-14T08:40:07.998Z,66.28
2018-01-14T08:42:35.572Z,66.58
2018-01-14T08:45:03.275Z,66.91
2018-01-14T08:47:30.937Z,66.35
2018-01-14T08:49:58.499Z,65.54
2018-01-14T08:52:26.247Z,65.97
2018-01-14T08:54:53.810Z,66.79
2018-01-14T08:57:21.588Z,66.89
2018-01-14T08:59:49.222Z,66.78
2018-01-14T09:02:16.792Z,65.83
2018-01-14T09:04:44.557Z,66.38
2018-01-14T09:07:12.226Z,64.47
2018-01-14T09:09:39.796Z,63.58
2018-01-14T09:12:07.425Z,62.87
2018-01-14T09:14:35.037Z,62.58
2018-01-14T09:17:02.718Z,63.06
2018-01-14T09:19:30.287Z,63.33
2018-01-14T09:21:57.987Z,62.85
2018-01-14T09:24:25.648Z,62.64
2018-01-14T09:26:53.240Z,61.63
2018-01-14T09:29:20.887Z,60.92
2018-01-14T09:31:48.452Z,59.63
2018-01-14T09:34:16.016Z,59.35
2018-01-14T09:36:43.763Z,59.77
2018-01-14T09:39:11.430Z,58.99
2018-01-14T09:41:39.000Z,58.21
2018-01-14T09:44:06.612Z,58.95
2018-01-14T09:46:34.191Z,58.93
2018-01-14T09:49:01.776Z,58.43
2018-01-14T09:51:29.382Z,57.41
2018-01-14T09:53:56.963Z,57.89
2018-01-14T09:56:24.553Z,57.56
2018-01-14T09:58:52.184Z,56.97
2018-01-14T10:01:19.768Z,55.71
2018-01-14T10:03:47.360Z,55.20
2018-01-14T10:06:14.972Z,54.60
2018-01-14T10:08:42.544Z,52.29
2018-01-14T10:11:10.114Z,52.08
2018-01-14T10:13:37.715Z,53.21
2018-01-14T10:16:05.280Z,52.30
2018-01-14T10:18:32.837Z,53.03
2018-01-14T10:21:00.426Z,49.83
2018-01-14T10:23:27.986Z,49.25
2018-01-14T10:25:55.613Z,48.84
2018-01-14T10:28:23.205Z,47.89
2018-01-14T10:30:50.797Z,48.68
2018-01-14T10:33:18.362Z,48.27
2018-01-14T10:35:45.964Z,48.88
2018-01-14T10:38:13.675Z,49.63
2018-01-14T10:40:41.251Z,51.47
2018-01-14T10:43:08.874Z,52.48
2018-01-14T10:45:36.503Z,52.40
2018-01-14T10:48:04.065Z,52.91
2018-01-14T10:50:31.685Z,53.48
2018-01-14T10:53:00.174Z,54.46
2018-01-14T10:55:27.742Z,54.73
2018-01-14T10:57:55.368Z,54.42
2018-01-14T11:00:22.967Z,54.97
2018-01-14T11:02:50.542Z,55.17
2018-01-14T11:05:18.131Z,54.71
2018-01-14T11:07:45.703Z,54.58
2018-01-14T11:10:13.273Z,54.52
2018-01-14T11:12:40.906Z,54.09
2018-01-14T11:15:08.475Z,53.50
2018-01-14T11:17:36.119Z,53.65
2018-01-14T11:20:03.755Z,54.21
2018-01-14T11:22:31.441Z,53.66
2018-01-14T11:24:59.016Z,52.62
2018-01-14T11:27:26.598Z,51.50
2018-01-14T11:30:00.760Z,51.42
2018-01-14T11:32:28.406Z,52.33
2018-01-14T11:34:55.973Z,54.81
2018-01-14T11:37:23.553Z,53.93
2018-01-14T11:39:51.170Z,54.07
2018-01-14T11:42:18.734Z,56.37
2018-01-14T11:44:46.306Z,55.50
2018-01-14T11:47:13.923Z,53.84
2018-01-14T11:49:41.470Z,49.89
2018-01-14T11:52:09.033Z,48.18
2018-01-14T11:54:36.632Z,50.77
2018-01-14T11:57:04.241Z,52.58
2018-01-14T11:59:31.799Z,53.78
2018-01-14T12:01:59.363Z,54.45
2018-01-14T12:04:26.940Z,55.00
2018-01-14T12:06:54.503Z,55.26
2018-01-14T12:09:22.100Z,55.42
2018-01-14T12:11:49.650Z,56.57
2018-01-14T12:14:17.251Z,56.50
2018-01-14T12:16:44.853Z,57.13
2018-01-14T12:19:12.482Z,56.76
2018-01-14T12:21:40.050Z,57.03
2018-01-14T12:24:07.639Z,57.71
2018-01-14T12:26:35.214Z,57.07
2018-01-14T12:29:02.766Z,56.94
2018-01-14T12:31:30.380Z,57.14
2018-01-14T12:37:08.952Z,59.83
2018-01-14T12:39:36.505Z,60.11
2018-01-14T12:42:04.299Z,60.97
2018-01-14T12:44:31.924Z,61.34
2018-01-14T12:46:59.479Z,62.52
2018-01-14T12:49:27.103Z,63.00
2018-01-14T12:51:54.841Z,62.81
2018-01-14T12:54:22.468Z,62.38
2018-01-14T12:56:50.025Z,62.04
2018-01-14T12:59:17.604Z,63.14
2018-01-14T13:01:45.216Z,62.90
2018-01-14T13:04:12.776Z,63.54
2018-01-14T13:06:40.365Z,63.37
2018-01-14T13:09:07.901Z,64.69
2018-01-14T13:11:35.448Z,64.10
2018-01-14T13:14:03.313Z,64.20
2018-01-14T13:16:30.873Z,64.48
2018-01-14T13:18:58.427Z,64.31
2018-01-14T13:21:26.008Z,63.64
2018-01-14T13:23:53.561Z,64.56
2018-01-14T13:26:21.118Z,64.80
2018-01-14T13:28:48.713Z,65.54
2018-01-14T13:31:16.281Z,65.42
2018-01-14T13:33:43.873Z,65.86
2018-01-14T13:36:11.611Z,66.75
2018-01-14T13:38:39.163Z,66.82
2018-01-14T13:41:06.763Z,67.38
2018-01-14T13:43:34.372Z,66.89
2018-01-14T13:46:01.926Z,67.75
2018-01-14T13:48:29.484Z,66.88
2018-01-14T13:50:57.088Z,67.08
2018-01-14T13:53:24.653Z,66.77
2018-01-14T13:55:52.215Z,67.07
2018-01-14T13:58:19.807Z,66.83
2018-01-14T14:00:47.394Z,67.00
2018-01-14T14:03:15.038Z,67.47
2018-01-14T14:05:42.638Z,67.59
2018-01-14T14:08:10.187Z,67.60
2018-01-14T14:10:37.831Z,68.28
2018-01-14T14:13:05.448Z,68.03
2018-01-14T14:15:33.006Z,67.93
2018-01-14T14:18:00.635Z,68.30
2018-01-14T14:20:28.252Z,67.78
2018-01-14T14:22:55.821Z,67.42
2018-01-14T14:25:23.470Z,68.24
2018-01-14T14:27:51.087Z,68.16
2018-01-14T14:30:18.654Z,68.81
2018-01-14T14:32:46.259Z,68.39
2018-01-14T14:35:13.828Z,68.76
2018-01-14T14:37:41.390Z,68.79
2018-01-14T14:40:09.030Z,68.73
2018-01-14T14:42:36.611Z,69.13
2018-01-14T14:45:04.194Z,69.06
2018-01-14T14:47:31.790Z,69.17
2018-01-14T14:49:59.368Z,69.84
2018-01-14T14:52:26.934Z,69.86
2018-01-14T14:54:54.541Z,70.54
2018-01-14T14:57:22.266Z,70.39
2018-01-14T14:59:49.825Z,70.44
2018-01-14T15:02:17.407Z,70.28
2018-01-14T15:04:44.964Z,70.65
2018-01-14T15:07:12.527Z,70.88
2018-01-14T15:09:40.148Z,71.11
2018-01-14T15:12:07.728Z,71.42
2018-01-14T15:14:35.282Z,71.41
2018-01-14T15:17:02.899Z,71.71
2018-01-14T15:19:30.466Z,71.53
2018-01-14T15:21:58.034Z,71.52
2018-01-14T15:24:25.626Z,71.71
2018-01-14T15:26:53.197Z,71.32
2018-01-14T15:29:20.755Z,71.77
2018-01-14T15:31:48.399Z,71.76
2018-01-14T15:34:15.976Z,71.63
2018-01-14T15:36:43.543Z,71.93
2018-01-14T15:39:11.152Z,71.95
2018-01-14T15:41:38.732Z,71.87
2018-01-14T15:44:06.313Z,71.97
2018-01-14T15:46:33.911Z,71.97
2018-01-14T15:49:01.481Z,72.25
2018-01-14T15:51:29.132Z,72.27
2018-01-14T15:53:56.767Z,71.96
2018-01-14T15:56:24.326Z,72.43
2018-01-14T15:58:51.911Z,72.68
2018-01-14T16:01:19.542Z,72.22
2018-01-14T16:03:47.115Z,72.73
2018-01-14T16:06:14.689Z,72.50
2018-01-14T16:08:42.370Z,73.07
2018-01-14T16:11:09.985Z,72.79
2018-01-14T16:13:37.560Z,73.38
2018-01-14T16:16:05.511Z,73.30
2018-01-14T16:18:33.130Z,73.16
2018-01-14T16:21:00.751Z,73.64
2018-01-14T16:23:28.306Z,73.68
2018-01-14T16:25:56.028Z,73.56
2018-01-14T16:28:23.650Z,73.46
2018-01-14T16:30:51.226Z,73.47
2018-01-14T16:33:18.836Z,73.75
2018-01-14T16:35:46.869Z,74.36
2018-01-14T16:38:14.439Z,74.02
2018-01-14T16:40:42.048Z,74.20
2018-01-14T16:43:09.633Z,73.92
2018-01-14T16:45:37.230Z,74.22
2018-01-14T16:48:04.836Z,74.76
2018-01-14T16:50:32.424Z,75.02
2018-01-14T16:53:00.021Z,74.90
2018-01-14T16:55:27.650Z,74.58
2018-01-14T16:57:55.236Z,74.70
2018-01-14T17:00:22.871Z,74.91
2018-01-14T17:05:24.830Z,75.27
2018-01-14T17:07:52.425Z,75.35
2018-01-14T17:10:20.124Z,75.08
2018-01-14T17:12:47.777Z,74.65
2018-01-14T17:15:15.397Z,74.70
2018-01-14T17:17:42.942Z,74.44
2018-01-14T17:20:10.526Z,74.84
2018-01-14T17:22:38.093Z,74.92
2018-01-14T17:25:05.698Z,74.66
2018-01-14T17:27:33.299Z,74.81
2018-01-14T17:30:00.876Z,74.58
2018-01-14T17:32:28.491Z,74.35
2018-01-14T17:34:56.093Z,74.32
2018-01-14T17:37:23.654Z,74.14
2018-01-14T17:39:51.252Z,74.29
2018-01-14T17:42:19.085Z,73.91
2018-01-14T17:44:46.661Z,74.51
2018-01-14T17:47:14.407Z,74.42
2018-01-14T17:49:43.688Z,74.92
2018-01-14T17:52:11.327Z,74.99
2018-01-14T17:54:43.820Z,75.23
2018-01-14T17:57:11.811Z,75.19
2018-01-14T17:59:39.373Z,74.95
2018-01-14T18:02:06.973Z,76.57
2018-01-14T18:04:34.599Z,75.73
2018-01-14T18:07:02.169Z,75.95
2018-01-14T18:09:29.721Z,75.58
2018-01-14T18:11:57.415Z,75.21
2018-01-14T18:14:24.989Z,75.20
2018-01-14T18:17:00.519Z,75.01
2018-01-14T18:19:28.092Z,74.96
2018-01-14T18:21:55.674Z,74.91
2018-01-14T18:24:23.278Z,75.01
2018-01-14T18:26:50.860Z,75.37
2018-01-14T18:29:18.423Z,75.27
2018-01-14T18:31:46.030Z,74.96
2018-01-14T18:34:13.601Z,75.40
2018-01-14T18:36:41.177Z,75.45
2018-01-14T18:39:08.822Z,75.34
2018-01-14T18:41:36.382Z,75.34
2018-01-14T18:44:03.972Z,75.35
2018-01-14T18:46:31.578Z,75.08
2018-01-14T18:48:59.143Z,75.26
2018-01-14T18:51:26.710Z,75.47
2018-01-14T18:53:54.416Z,75.49
2018-01-14T18:56:21.999Z,75.38
2018-01-14T18:58:49.593Z,75.82
2018-01-14T19:01:17.170Z,75.03
2018-01-14T19:03:44.782Z,75.10
2018-01-14T19:06:12.364Z,75.52
2018-01-14T19:08:39.951Z,75.00
2018-01-14T19:11:07.553Z,75.22
2018-01-14T19:13:35.120Z,75.11
2018-01-14T19:16:02.707Z,75.40
2018-01-14T19:18:30.361Z,75.47
2018-01-14T19:20:57.967Z,75.08
2018-01-14T19:23:25.565Z,75.38
2018-01-14T19:25:53.429Z,75.56
2018-01-14T19:28:21.091Z,75.36
2018-01-14T19:30:48.705Z,75.43
2018-01-14T19:33:16.322Z,75.60
2018-01-14T19:35:43.909Z,75.25
2018-01-14T19:38:11.521Z,75.45
2018-01-14T19:40:39.103Z,75.67
2018-01-14T19:43:06.705Z,75.45
2018-01-14T19:45:34.289Z,75.08
2018-01-14T19:48:01.881Z,75.24
2018-01-14T19:50:29.458Z,75.26
2018-01-14T19:52:57.101Z,75.23
2018-01-14T19:55:24.786Z,75.04
2018-01-14T19:57:54.437Z,75.10
2018-01-14T20:00:22.036Z,74.68
2018-01-14T20:02:49.601Z,74.71
2018-01-14T20:05:17.182Z,75.20
2018-01-14T20:07:44.797Z,74.48
2018-01-14T20:10:12.381Z,74.86
2018-01-14T20:12:40.031Z,74.79
2018-01-14T20:15:07.631Z,74.70
2018-01-14T20:17:38.922Z,74.70
2018-01-14T20:20:06.717Z,75.49
2018-01-14T20:22:34.366Z,75.16
2018-01-14T20:25:01.981Z,74.50
2018-01-14T20:27:29.570Z,75.67
2018-01-14T20:29:57.144Z,74.80
2018-01-14T20:32:24.791Z,75.29
2018-01-14T20:34:52.351Z,75.36
2018-01-14T20:37:21.674Z,75.74
2018-01-14T20:39:49.288Z,75.30
2018-01-14T20:42:16.885Z,75.05
2018-01-14T20:44:50.258Z,75.32
2018-01-14T20:47:18.170Z,74.97
2018-01-14T20:49:46.215Z,75.06
2018-01-14T20:52:13.848Z,75.40
2018-01-14T20:54:41.414Z,75.90
2018-01-14T20:57:09.037Z,75.85
2018-01-14T20:59:37.404Z,76.76
2018-01-14T21:02:04.989Z,76.35
2018-01-14T21:04:32.574Z,76.53
2018-01-14T21:07:00.224Z,76.87
2018-01-14T21:09:27.838Z,77.42
2018-01-14T21:11:55.404Z,77.73
2018-01-14T21:14:23.036Z,78.14
2018-01-14T21:16:50.615Z,78.10
2018-01-14T21:19:18.185Z,78.26
2018-01-14T21:21:45.807Z,78.08
2018-01-14T21:24:13.376Z,78.63
2018-01-14T21:26:40.958Z,79.34
2018-01-14T21:29:08.568Z,78.90
2018-01-14T21:31:36.140Z,78.67
2018-01-14T21:34:03.752Z,79.14
2018-01-14T21:36:31.371Z,79.42
2018-01-14T21:38:58.965Z,79.37
2018-01-14T21:41:26.555Z,78.89
2018-01-14T21:43:54.268Z,78.94
2018-01-14T21:46:21.837Z,78.26
2018-01-14T21:48:49.405Z,78.47
2018-01-14T21:51:17.012Z,78.89
2018-01-14T21:53:44.594Z,78.31
2018-01-14T21:56:12.179Z,78.34
2018-01-14T21:58:39.775Z,78.77
2018-01-14T22:01:07.353Z,78.60
2018-01-14T22:03:34.935Z,78.12
2018-01-14T22:06:02.557Z,77.53
2018-01-14T22:08:30.146Z,77.57
2018-01-14T22:10:57.733Z,77.73
2018-01-14T22:13:25.347Z,77.68
2018-01-14T22:15:52.934Z,77.84
2018-01-14T22:18:20.526Z,77.61
2018-01-14T22:20:48.136Z,77.51
2018-01-14T22:23:15.696Z,77.83
2018-01-14T22:25:43.324Z,77.34
2018-01-14T22:28:10.944Z,77.40
2018-01-14T22:30:38.515Z,78.24
2018-01-14T22:33:06.090Z,77.97
2018-01-14T22:35:33.722Z,78.14
2018-01-14T22:38:01.312Z,78.32
2018-01-14T22:40:28.896Z,78.42
2018-01-14T22:42:56.577Z,77.69
2018-01-14T22:45:24.159Z,77.65
2018-01-14T22:47:51.754Z,76.93
2018-01-14T22:50:19.378Z,76.90
2018-01-14T22:52:46.998Z,76.89
2018-01-14T22:55:14.580Z,76.91
2018-01-14T22:57:42.208Z,76.76
2018-01-14T23:00:09.969Z,76.77
2018-01-14T23:02:37.533Z,76.35
2018-01-14T23:05:05.153Z,76.85
2018-01-14T23:07:32.736Z,77.30
2018-01-14T23:10:00.317Z,77.19
2018-01-14T23:12:27.949Z,77.61
2018-01-14T23:15:01.019Z,77.62
2018-01-14T23:17:28.632Z,78.06
2018-01-14T23:19:56.203Z,78.43
2018-01-14T23:22:23.763Z,78.47
2018-01-14T23:24:51.377Z,78.82
2018-01-14T23:27:18.947Z,78.77
2018-01-14T23:29:46.521Z,79.31
2018-01-14T23:32:14.118Z,79.65
2018-01-14T23:34:41.713Z,80.26
2018-01-14T23:37:09.287Z,80.76
2018-01-14T23:39:36.896Z,81.10
2018-01-14T23:42:04.481Z,81.28
2018-01-14T23:44:32.128Z,81.94
2018-01-14T23:46:59.734Z,82.24
2018-01-14T23:49:27.349Z,82.75
2018-01-14T23:51:54.918Z,83.48
2018-01-14T23:54:22.545Z,83.35
2018-01-14T23:56:50.120Z,83.19
2018-01-14T23:59:17.700Z,83.11
